Time;durP1;ratioP1;P1;durP2;ratioP2;P2;SDS_P1;SDS_P2;PMS_P1;PMS_P2;Temp;Humidity;BMP_temperature;BMP_pressure;BME280_temperature;BME280_humidity;BME280_pressure;Samples;Min_cycle;Max_cycle;Signal;HPM_P1;HPM_P2
2023/01/05 00:01:38;;;;;;;0.63;0.63;;;;;;;;;;4934356;29;20179;-76
2023/01/05 00:04:05;;;;;;;0.60;0.60;;;;;;;;;;4933380;29;20219;-76
2023/01/05 00:06:31;;;;;;;0.70;0.70;;;;;;;;;;4933992;29;20181;-76
2023/01/05 00:09:00;;;;;;;0.70;0.70;;;;;;;;;;4934213;29;20195;-75
2023/01/05 00:22:31;;;;;;;0.60;0.60;;;;;;;;;;4936603;29;20190;-76
2023/01/05 00:25:04;;;;;;;0.60;0.60;;;;;;;;;;4936003;29;20230;-75
2023/01/05 00:27:31;;;;;;;0.80;0.80;;;;;;;;;;4936795;29;20222;-75
2023/01/05 00:29:57;;;;;;;0.50;0.50;;;;;;;;;;4936763;29;20271;-76
2023/01/05 00:32:23;;;;;;;0.60;0.60;;;;;;;;;;4935480;29;20205;-75
2023/01/05 00:34:49;;;;;;;0.60;0.60;;;;;;;;;;4933489;29;20541;-75
2023/01/05 00:37:16;;;;;;;0.60;0.60;;;;;;;;;;4933682;29;20175;-75
2023/01/05 00:39:42;;;;;;;0.60;0.60;;;;;;;;;;4933697;29;20611;-75
2023/01/05 00:42:08;;;;;;;0.80;0.80;;;;;;;;;;4933596;29;20203;-76
2023/01/05 00:44:34;;;;;;;0.60;0.60;;;;;;;;;;4933161;29;20250;-75
2023/01/05 00:47:00;;;;;;;0.60;0.60;;;;;;;;;;4933921;29;20175;-76
2023/01/05 00:49:26;;;;;;;0.53;0.53;;;;;;;;;;4933880;29;20203;-75
2023/01/05 00:51:52;;;;;;;0.70;0.70;;;;;;;;;;4933704;29;20209;-75
2023/01/05 00:54:18;;;;;;;0.50;0.50;;;;;;;;;;4933627;29;20213;-76
2023/01/05 00:56:48;;;;;;;0.60;0.60;;;;;;;;;;4933978;29;20668;-76
2023/01/05 00:59:14;;;;;;;0.50;0.50;;;;;;;;;;4933629;29;20667;-76
2023/01/05 01:01:39;;;;;;;0.63;0.63;;;;;;;;;;4933745;29;20179;-76
2023/01/05 01:04:06;;;;;;;0.50;0.50;;;;;;;;;;4933000;29;20226;-76
2023/01/05 01:06:31;;;;;;;0.60;0.60;;;;;;;;;;4933614;29;20198;-76
2023/01/05 01:08:58;;;;;;;0.47;0.47;;;;;;;;;;4933634;29;20610;-77
2023/01/05 01:11:24;;;;;;;0.60;0.60;;;;;;;;;;4933831;29;20179;-75
2023/01/05 01:13:50;;;;;;;0.50;0.50;;;;;;;;;;4933011;29;20191;-75
2023/01/05 01:16:16;;;;;;;0.50;0.50;;;;;;;;;;4933459;29;20223;-75
2023/01/05 01:18:42;;;;;;;0.50;0.50;;;;;;;;;;4933531;29;20553;-75
2023/01/05 01:21:09;;;;;;;0.60;0.60;;;;;;;;;;4933567;29;20171;-74
2023/01/05 01:23:36;;;;;;;0.50;0.50;;;;;;;;;;4932802;29;20197;-74
2023/01/05 01:26:06;;;;;;;0.60;0.60;;;;;;;;;;4933304;29;20218;-75
2023/01/05 01:28:32;;;;;;;0.67;0.67;;;;;;;;;;4933371;29;20218;-74
2023/01/05 01:30:58;;;;;;;0.60;0.60;;;;;;;;;;4933350;29;20586;-74
2023/01/05 01:33:24;;;;;;;0.60;0.60;;;;;;;;;;4935516;29;20266;-74
2023/01/05 01:35:50;;;;;;;0.53;0.53;;;;;;;;;;4936735;29;20219;-74
2023/01/05 01:38:16;;;;;;;0.60;0.60;;;;;;;;;;4944948;29;20217;-75
2023/01/05 01:40:43;;;;;;;0.60;0.60;;;;;;;;;;4939154;29;20235;-75
2023/01/05 01:43:14;;;;;;;0.60;0.60;;;;;;;;;;4936181;29;20180;-75
2023/01/05 01:45:40;;;;;;;0.60;0.60;;;;;;;;;;4936543;29;20579;-75
2023/01/05 01:48:06;;;;;;;0.70;0.70;;;;;;;;;;4936510;29;20190;-75
2023/01/05 01:50:58;;;;;;;0.50;0.50;;;;;;;;;;4936430;29;20647;-75
2023/01/05 01:53:24;;;;;;;0.50;0.50;;;;;;;;;;4933135;29;20687;-74
2023/01/05 01:55:51;;;;;;;0.50;0.50;;;;;;;;;;4936508;29;20298;-76
2023/01/05 01:58:19;;;;;;;0.43;0.43;;;;;;;;;;4936568;29;20180;-75
2023/01/05 02:00:46;;;;;;;0.40;0.40;;;;;;;;;;4936381;29;20183;-75
2023/01/05 02:03:12;;;;;;;0.60;0.60;;;;;;;;;;4935628;29;20658;-75
2023/01/05 02:05:38;;;;;;;0.70;0.70;;;;;;;;;;4936250;29;20226;-75
2023/01/05 02:08:04;;;;;;;0.60;0.60;;;;;;;;;;4936175;29;20555;-75
2023/01/05 02:10:55;;;;;;;0.60;0.60;;;;;;;;;;4936272;29;20179;-74
2023/01/05 02:13:40;;;;;;;0.60;0.60;;;;;;;;;;4935718;29;20194;-75
2023/01/05 02:16:06;;;;;;;0.60;0.60;;;;;;;;;;4936109;29;20202;-76
2023/01/05 02:18:38;;;;;;;0.60;0.60;;;;;;;;;;4936227;29;20179;-76
2023/01/05 02:21:24;;;;;;;0.50;0.50;;;;;;;;;;4936153;29;20179;-75
2023/01/05 02:24:08;;;;;;;0.60;0.60;;;;;;;;;;4935205;29;20314;-76
2023/01/05 02:26:53;;;;;;;0.50;0.50;;;;;;;;;;4935831;29;20222;-76
2023/01/05 02:29:25;;;;;;;0.60;0.60;;;;;;;;;;4935952;29;20246;-76
2023/01/05 02:31:57;;;;;;;0.50;0.50;;;;;;;;;;4934464;29;20546;-77
2023/01/05 02:34:33;;;;;;;0.60;0.60;;;;;;;;;;4935067;29;20199;-77
2023/01/05 02:37:07;;;;;;;0.50;0.50;;;;;;;;;;4935788;29;20552;-76
2023/01/05 02:39:43;;;;;;;0.57;0.57;;;;;;;;;;4935882;29;20183;-76
2023/01/05 02:42:18;;;;;;;0.50;0.50;;;;;;;;;;4935738;29;20179;-76
2023/01/05 02:44:44;;;;;;;0.50;0.50;;;;;;;;;;4934281;29;20562;-76
2023/01/05 02:47:26;;;;;;;0.50;0.50;;;;;;;;;;4935400;29;20275;-76
2023/01/05 02:49:57;;;;;;;0.60;0.60;;;;;;;;;;4935545;29;20187;-75
2023/01/05 02:52:23;;;;;;;0.60;0.60;;;;;;;;;;4935528;29;20186;-76
2023/01/05 02:54:52;;;;;;;0.70;0.70;;;;;;;;;;4934883;29;20703;-76
2023/01/05 02:57:49;;;;;;;0.60;0.60;;;;;;;;;;4935791;29;20182;-75
2023/01/05 03:00:21;;;;;;;0.70;0.70;;;;;;;;;;4935402;29;20218;-75
2023/01/05 03:02:48;;;;;;;0.57;0.57;;;;;;;;;;4934832;29;20183;-75
2023/01/05 03:05:17;;;;;;;0.60;0.60;;;;;;;;;;4934967;29;20278;-75
2023/01/05 03:07:43;;;;;;;0.70;0.70;;;;;;;;;;4934972;29;20230;-75
2023/01/05 03:15:43;;;;;;;0.67;0.67;;;;;;;;;;4935166;29;20306;-74
2023/01/05 03:18:11;;;;;;;0.70;0.70;;;;;;;;;;4934665;29;20179;-75
2023/01/05 03:20:40;;;;;;;0.60;0.60;;;;;;;;;;4935065;29;20273;-75
2023/01/05 03:37:21;;;;;;;0.60;0.60;;;;;;;;;;4934466;29;20210;-75
2023/01/05 03:39:47;;;;;;;0.60;0.60;;;;;;;;;;4934614;29;20226;-74
2023/01/05 03:42:14;;;;;;;0.60;0.60;;;;;;;;;;4934429;29;20183;-74
2023/01/05 03:44:43;;;;;;;0.70;0.70;;;;;;;;;;4933830;29;20305;-74
2023/01/05 03:47:09;;;;;;;0.60;0.60;;;;;;;;;;4934228;29;20520;-74
2023/01/05 03:49:35;;;;;;;0.60;0.60;;;;;;;;;;4934184;29;20191;-74
2023/01/05 03:52:01;;;;;;;0.70;0.70;;;;;;;;;;4934238;29;20223;-75
2023/01/05 03:54:27;;;;;;;0.60;0.60;;;;;;;;;;4933094;29;20231;-74
2023/01/05 03:56:53;;;;;;;0.70;0.70;;;;;;;;;;4934161;29;20175;-75
2023/01/05 03:59:19;;;;;;;0.50;0.50;;;;;;;;;;4934043;29;20183;-74
2023/01/05 04:01:45;;;;;;;0.67;0.67;;;;;;;;;;4934117;29;20547;-75
2023/01/05 04:04:11;;;;;;;0.60;0.60;;;;;;;;;;4933302;29;20222;-75
2023/01/05 04:06:37;;;;;;;0.60;0.60;;;;;;;;;;4934284;29;20201;-76
2023/01/05 04:09:03;;;;;;;0.50;0.50;;;;;;;;;;4934201;29;20179;-76
2023/01/05 04:11:29;;;;;;;0.60;0.60;;;;;;;;;;4934077;29;20179;-76
2023/01/05 04:13:55;;;;;;;0.63;0.63;;;;;;;;;;4933440;29;20179;-75
2023/01/05 04:16:21;;;;;;;0.60;0.60;;;;;;;;;;4933862;29;20508;-75
2023/01/05 04:18:47;;;;;;;0.50;0.50;;;;;;;;;;4933847;29;20183;-76
2023/01/05 04:21:13;;;;;;;0.50;0.50;;;;;;;;;;4934090;29;20187;-76
2023/01/05 04:23:39;;;;;;;0.70;0.70;;;;;;;;;;4933441;29;20175;-74
2023/01/05 04:26:05;;;;;;;0.60;0.60;;;;;;;;;;4952616;23;20283;-78
2023/01/05 04:28:31;;;;;;;0.50;0.50;;;;;;;;;;4974898;28;20623;-78
2023/01/05 04:30:57;;;;;;;0.57;0.57;;;;;;;;;;4974755;28;20193;-77
2023/01/05 04:33:24;;;;;;;0.50;0.50;;;;;;;;;;4974166;28;20201;-77
2023/01/05 04:35:50;;;;;;;0.63;0.63;;;;;;;;;;4959025;28;20207;-79
2023/01/05 04:38:16;;;;;;;0.50;0.50;;;;;;;;;;4955952;29;20230;-76
2023/01/05 04:40:42;;;;;;;0.60;0.60;;;;;;;;;;4957212;29;20186;-77
2023/01/05 04:43:08;;;;;;;0.60;0.60;;;;;;;;;;4953068;29;20183;-76
2023/01/05 04:45:34;;;;;;;0.60;0.60;;;;;;;;;;4953488;28;20300;-77
2023/01/05 04:48:00;;;;;;;0.60;0.60;;;;;;;;;;4953251;29;20183;-77
2023/01/05 04:50:27;;;;;;;0.60;0.60;;;;;;;;;;4953701;29;20210;-76
2023/01/05 04:52:53;;;;;;;0.60;0.60;;;;;;;;;;4953056;29;20245;-75
2023/01/05 04:55:19;;;;;;;0.50;0.50;;;;;;;;;;4954105;28;20202;-76
2023/01/05 04:57:45;;;;;;;0.60;0.60;;;;;;;;;;4954212;29;20261;-76
2023/01/05 05:00:11;;;;;;;0.60;0.60;;;;;;;;;;4954597;29;20186;-76
2023/01/05 05:02:37;;;;;;;0.63;0.63;;;;;;;;;;4952854;29;20567;-76
2023/01/05 05:05:04;;;;;;;0.60;0.60;;;;;;;;;;4953132;29;20262;-76
2023/01/05 05:07:29;;;;;;;0.70;0.70;;;;;;;;;;4956353;28;20597;-76
2023/01/05 05:09:55;;;;;;;0.50;0.50;;;;;;;;;;4956881;29;20269;-76
2023/01/05 05:12:21;;;;;;;0.53;0.53;;;;;;;;;;4956625;29;20740;-76
2023/01/05 05:14:47;;;;;;;0.63;0.63;;;;;;;;;;4956120;29;20210;-76
2023/01/05 05:17:14;;;;;;;0.60;0.60;;;;;;;;;;4956793;29;20186;-75
2023/01/05 05:19:40;;;;;;;0.60;0.60;;;;;;;;;;4956106;29;20573;-75
2023/01/05 05:22:06;;;;;;;0.70;0.70;;;;;;;;;;4956614;29;20609;-75
2023/01/05 05:24:32;;;;;;;0.60;0.60;;;;;;;;;;4955878;28;20230;-75
2023/01/05 05:26:58;;;;;;;0.60;0.60;;;;;;;;;;4956394;29;20199;-76
2023/01/05 05:29:24;;;;;;;0.50;0.50;;;;;;;;;;4956042;29;20185;-75
2023/01/05 05:31:51;;;;;;;0.70;0.70;;;;;;;;;;4956599;29;20223;-75
2023/01/05 05:34:17;;;;;;;0.50;0.50;;;;;;;;;;4956705;28;20333;-76
2023/01/05 05:36:43;;;;;;;0.70;0.70;;;;;;;;;;4956446;29;20632;-75
2023/01/05 05:39:11;;;;;;;0.60;0.60;;;;;;;;;;4956761;29;20294;-75
2023/01/05 05:41:37;;;;;;;0.60;0.60;;;;;;;;;;4956076;29;20261;-75
2023/01/05 05:44:03;;;;;;;0.70;0.70;;;;;;;;;;4956214;28;20198;-76
2023/01/05 05:46:30;;;;;;;0.60;0.60;;;;;;;;;;4956103;29;20185;-76
2023/01/05 05:48:56;;;;;;;0.57;0.57;;;;;;;;;;4955980;29;20202;-76
2023/01/05 05:51:22;;;;;;;0.60;0.60;;;;;;;;;;4955943;29;20195;-76
2023/01/05 05:53:48;;;;;;;0.60;0.60;;;;;;;;;;4955479;29;20189;-76
2023/01/05 05:56:14;;;;;;;0.60;0.60;;;;;;;;;;4956257;28;20202;-76
2023/01/05 05:58:40;;;;;;;0.60;0.60;;;;;;;;;;4955887;29;20179;-75
2023/01/05 06:01:06;;;;;;;0.40;0.40;;;;;;;;;;4955986;29;20179;-76
2023/01/05 06:03:32;;;;;;;0.50;0.50;;;;;;;;;;4956057;29;20248;-75
2023/01/05 06:05:58;;;;;;;0.50;0.50;;;;;;;;;;4956676;28;20293;-75
2023/01/05 06:08:26;;;;;;;0.50;0.50;;;;;;;;;;4960895;29;20234;-77
2023/01/05 06:10:51;;;;;;;0.60;0.60;;;;;;;;;;4963323;29;20182;-77
2023/01/05 06:13:18;;;;;;;0.57;0.57;;;;;;;;;;4955256;29;20182;-76
2023/01/05 06:15:44;;;;;;;0.50;0.50;;;;;;;;;;4955447;28;20253;-77
2023/01/05 06:18:10;;;;;;;0.60;0.60;;;;;;;;;;4955232;28;20178;-76
2023/01/05 06:20:36;;;;;;;0.60;0.60;;;;;;;;;;4955646;29;20187;-76
2023/01/05 06:23:02;;;;;;;0.57;0.57;;;;;;;;;;4955130;29;20196;-76
2023/01/05 06:25:28;;;;;;;0.50;0.50;;;;;;;;;;4955174;28;20274;-76
2023/01/05 06:27:54;;;;;;;0.50;0.50;;;;;;;;;;4955434;28;20190;-76
2023/01/05 06:30:20;;;;;;;0.47;0.47;;;;;;;;;;4956942;29;20178;-75
2023/01/05 06:32:46;;;;;;;0.60;0.60;;;;;;;;;;4957483;29;20187;-76
2023/01/05 06:35:12;;;;;;;0.50;0.50;;;;;;;;;;4956959;28;20217;-77
2023/01/05 06:37:38;;;;;;;0.60;0.60;;;;;;;;;;4956139;29;20178;-76
2023/01/05 06:40:05;;;;;;;0.50;0.50;;;;;;;;;;4954915;29;20171;-75
2023/01/05 06:42:31;;;;;;;0.57;0.57;;;;;;;;;;4955810;29;20198;-76
2023/01/05 06:44:57;;;;;;;0.60;0.60;;;;;;;;;;4955753;28;20214;-76
2023/01/05 06:47:23;;;;;;;0.60;0.60;;;;;;;;;;4955269;29;20181;-76
2023/01/05 06:49:49;;;;;;;0.50;0.50;;;;;;;;;;4955554;29;20558;-76
2023/01/05 06:52:15;;;;;;;0.60;0.60;;;;;;;;;;4955308;29;20186;-77
2023/01/05 06:54:41;;;;;;;0.60;0.60;;;;;;;;;;4954521;28;20198;-77
2023/01/05 06:57:07;;;;;;;0.50;0.50;;;;;;;;;;4954800;29;20198;-77
2023/01/05 06:59:33;;;;;;;0.57;0.57;;;;;;;;;;4954895;29;20427;-76
2023/01/05 07:01:59;;;;;;;0.50;0.50;;;;;;;;;;4954711;29;20174;-77
2023/01/05 07:04:25;;;;;;;0.50;0.50;;;;;;;;;;4955015;28;20706;-77
2023/01/05 07:06:51;;;;;;;0.60;0.60;;;;;;;;;;4955791;29;20580;-77
2023/01/05 07:09:17;;;;;;;0.60;0.60;;;;;;;;;;4954903;29;20194;-78
2023/01/05 07:11:43;;;;;;;0.70;0.70;;;;;;;;;;4957323;29;20181;-77
2023/01/05 07:14:09;;;;;;;0.60;0.60;;;;;;;;;;4954582;28;20174;-78
2023/01/05 07:16:35;;;;;;;0.60;0.60;;;;;;;;;;4954792;29;20182;-78
2023/01/05 07:19:01;;;;;;;0.60;0.60;;;;;;;;;;4955285;29;20174;-78
2023/01/05 07:21:27;;;;;;;0.50;0.50;;;;;;;;;;4954790;29;20190;-76
2023/01/05 07:23:53;;;;;;;0.60;0.60;;;;;;;;;;4954163;28;20182;-77
2023/01/05 07:26:19;;;;;;;0.70;0.70;;;;;;;;;;4954554;29;20203;-76
2023/01/05 07:28:45;;;;;;;0.60;0.60;;;;;;;;;;4954807;28;20186;-77
2023/01/05 07:31:12;;;;;;;0.60;0.60;;;;;;;;;;4955973;29;20242;-77
2023/01/05 07:33:38;;;;;;;0.53;0.53;;;;;;;;;;4956188;29;20185;-77
2023/01/05 07:36:04;;;;;;;0.60;0.60;;;;;;;;;;4954555;28;20282;-77
2023/01/05 07:38:33;;;;;;;0.60;0.60;;;;;;;;;;4956197;29;20187;-77
2023/01/05 07:40:59;;;;;;;0.60;0.60;;;;;;;;;;4954987;29;20233;-77
2023/01/05 07:43:25;;;;;;;0.60;0.60;;;;;;;;;;4953775;29;20171;-77
2023/01/05 07:45:52;;;;;;;0.70;0.70;;;;;;;;;;4953763;28;20811;-78
2023/01/05 07:48:17;;;;;;;0.50;0.50;;;;;;;;;;4954099;29;20215;-78
2023/01/05 07:50:43;;;;;;;0.60;0.60;;;;;;;;;;4953958;29;20428;-77
2023/01/05 07:53:09;;;;;;;0.60;0.60;;;;;;;;;;4953687;29;20214;-77
2023/01/05 07:55:35;;;;;;;0.60;0.60;;;;;;;;;;4954593;28;20285;-77
2023/01/05 07:58:01;;;;;;;0.57;0.57;;;;;;;;;;4955520;29;20218;-77
2023/01/05 08:00:28;;;;;;;0.57;0.57;;;;;;;;;;4956512;29;20186;-77
2023/01/05 08:02:54;;;;;;;0.50;0.50;;;;;;;;;;4954938;29;20643;-76
2023/01/05 08:05:20;;;;;;;0.60;0.60;;;;;;;;;;4956501;28;20313;-76
2023/01/05 08:07:46;;;;;;;0.50;0.50;;;;;;;;;;4955772;29;20202;-77
2023/01/05 08:10:27;;;;;;;0.50;0.50;;;;;;;;;;4954782;29;20182;-77
2023/01/05 08:15:38;;;;;;;0.50;0.50;;;;;;;;;;4955551;28;20209;-78
2023/01/05 08:18:04;;;;;;;0.50;0.50;;;;;;;;;;4955296;29;20213;-78
2023/01/05 08:20:30;;;;;;;0.50;0.50;;;;;;;;;;4955002;29;20224;-78
2023/01/05 08:22:56;;;;;;;0.50;0.50;;;;;;;;;;4958757;29;20189;-77
2023/01/05 08:25:22;;;;;;;0.60;0.60;;;;;;;;;;4956203;28;20249;-77
2023/01/05 08:27:48;;;;;;;0.60;0.60;;;;;;;;;;4957065;28;20222;-77
2023/01/05 08:30:14;;;;;;;0.60;0.60;;;;;;;;;;4954616;29;20179;-77
2023/01/05 08:32:41;;;;;;;0.50;0.50;;;;;;;;;;4955685;29;20186;-77
2023/01/05 08:35:07;;;;;;;0.50;0.50;;;;;;;;;;4955805;28;20318;-78
2023/01/05 08:37:33;;;;;;;0.63;0.63;;;;;;;;;;4955261;29;20182;-77
2023/01/05 08:39:59;;;;;;;0.60;0.60;;;;;;;;;;4955327;29;20281;-77
2023/01/05 08:42:25;;;;;;;0.50;0.50;;;;;;;;;;4957561;28;20178;-77
2023/01/05 08:44:51;;;;;;;0.60;0.60;;;;;;;;;;4959651;28;20293;-77
2023/01/05 08:47:17;;;;;;;0.50;0.50;;;;;;;;;;4960254;29;20674;-76
2023/01/05 08:49:49;;;;;;;0.50;0.50;;;;;;;;;;4959471;29;20604;-78
2023/01/05 08:52:15;;;;;;;0.60;0.60;;;;;;;;;;4959249;29;20183;-77
2023/01/05 08:54:42;;;;;;;0.63;0.63;;;;;;;;;;4958513;28;20202;-77
2023/01/05 08:57:08;;;;;;;0.60;0.60;;;;;;;;;;4959104;29;20202;-75
2023/01/05 08:59:34;;;;;;;0.50;0.50;;;;;;;;;;4959899;29;20570;-76
2023/01/05 09:02:00;;;;;;;0.53;0.53;;;;;;;;;;4957959;29;20182;-77
2023/01/05 09:04:26;;;;;;;0.53;0.53;;;;;;;;;;4958155;28;20280;-78
2023/01/05 09:06:53;;;;;;;0.50;0.50;;;;;;;;;;4958314;29;20194;-79
2023/01/05 09:09:19;;;;;;;0.50;0.50;;;;;;;;;;4957376;29;20400;-78
2023/01/05 09:11:45;;;;;;;0.60;0.60;;;;;;;;;;4957210;29;20270;-77
2023/01/05 09:14:13;;;;;;;0.50;0.50;;;;;;;;;;4957325;28;20686;-77
2023/01/05 09:16:40;;;;;;;0.53;0.53;;;;;;;;;;4958419;29;20190;-78
2023/01/05 09:19:06;;;;;;;0.50;0.50;;;;;;;;;;4959600;29;20174;-78
2023/01/05 09:21:32;;;;;;;0.50;0.50;;;;;;;;;;4958190;29;20723;-78
2023/01/05 09:23:58;;;;;;;0.60;0.60;;;;;;;;;;4957094;28;20205;-78
2023/01/05 09:26:24;;;;;;;0.40;0.40;;;;;;;;;;4959531;29;20628;-76
2023/01/05 09:28:50;;;;;;;0.50;0.50;;;;;;;;;;4957989;29;20215;-77
2023/01/05 09:31:17;;;;;;;0.67;0.67;;;;;;;;;;4956827;29;20185;-76
2023/01/05 09:33:44;;;;;;;0.60;0.60;;;;;;;;;;4956323;29;20186;-76
2023/01/05 09:36:14;;;;;;;0.50;0.50;;;;;;;;;;4956632;28;20656;-76
2023/01/05 09:38:40;;;;;;;0.50;0.50;;;;;;;;;;4956771;29;20179;-76
2023/01/05 09:41:35;;;;;;;0.50;0.50;;;;;;;;;;4956394;29;20210;-76
2023/01/05 09:44:06;;;;;;;0.60;0.60;;;;;;;;;;4943185;28;20214;-76
2023/01/05 09:46:33;;;;;;;0.60;0.60;;;;;;;;;;4956722;29;20273;-77
2023/01/05 09:49:01;;;;;;;0.50;0.50;;;;;;;;;;4956715;29;20178;-76
2023/01/05 09:51:27;;;;;;;0.60;0.60;;;;;;;;;;4957916;29;20181;-78
2023/01/05 09:53:53;;;;;;;0.60;0.60;;;;;;;;;;4960269;28;20170;-76
2023/01/05 09:56:22;;;;;;;0.50;0.50;;;;;;;;;;4956589;29;20588;-77
2023/01/05 09:58:48;;;;;;;0.50;0.50;;;;;;;;;;4957397;29;20183;-76
2023/01/05 10:01:16;;;;;;;0.50;0.50;;;;;;;;;;4959103;29;20171;-76
2023/01/05 10:03:47;;;;;;;0.50;0.50;;;;;;;;;;4956795;29;20185;-77
2023/01/05 10:06:14;;;;;;;0.50;0.50;;;;;;;;;;4958446;28;20217;-75
2023/01/05 10:08:45;;;;;;;0.50;0.50;;;;;;;;;;4957851;29;20221;-76
2023/01/05 10:14:06;;;;;;;0.50;0.50;;;;;;;;;;4957607;28;20275;-75
2023/01/05 10:16:32;;;;;;;0.50;0.50;;;;;;;;;;4956753;29;20186;-76
2023/01/05 10:19:00;;;;;;;0.50;0.50;;;;;;;;;;4955813;29;20206;-77
2023/01/05 10:21:26;;;;;;;0.70;0.70;;;;;;;;;;4955963;29;20189;-76
2023/01/05 10:24:07;;;;;;;0.60;0.60;;;;;;;;;;4955870;29;20183;-75
2023/01/05 10:26:43;;;;;;;0.60;0.60;;;;;;;;;;4973365;23;20226;-75
2023/01/05 10:29:11;;;;;;;0.60;0.60;;;;;;;;;;4974852;28;20197;-75
2023/01/05 10:31:37;;;;;;;0.53;0.53;;;;;;;;;;4974711;28;20635;-75
2023/01/05 10:34:08;;;;;;;0.50;0.50;;;;;;;;;;4972674;28;20247;-73
2023/01/05 10:36:34;;;;;;;0.50;0.50;;;;;;;;;;4955532;29;20198;-75
2023/01/05 10:39:19;;;;;;;0.50;0.50;;;;;;;;;;4955621;29;20228;-76
2023/01/05 10:42:03;;;;;;;0.50;0.50;;;;;;;;;;4955358;29;20644;-73
2023/01/05 10:44:30;;;;;;;0.70;0.70;;;;;;;;;;4954942;28;20218;-73
2023/01/05 10:46:56;;;;;;;0.50;0.50;;;;;;;;;;4955406;29;20183;-76
2023/01/05 10:49:27;;;;;;;0.50;0.50;;;;;;;;;;4955301;29;20213;-73
2023/01/05 10:51:55;;;;;;;0.50;0.50;;;;;;;;;;4955123;29;20182;-74
2023/01/05 10:54:41;;;;;;;0.50;0.50;;;;;;;;;;4937146;29;20230;-73
2023/01/05 10:57:26;;;;;;;0.50;0.50;;;;;;;;;;4944863;28;20190;-72
2023/01/05 11:00:04;;;;;;;0.50;0.50;;;;;;;;;;4937548;29;20174;-74
2023/01/05 11:02:34;;;;;;;0.50;0.50;;;;;;;;;;4954437;29;20194;-73
2023/01/05 11:05:20;;;;;;;0.60;0.60;;;;;;;;;;4954139;28;20371;-74
2023/01/05 11:07:48;;;;;;;0.50;0.50;;;;;;;;;;4954564;29;20222;-74
2023/01/05 11:10:21;;;;;;;0.50;0.50;;;;;;;;;;4954990;29;20660;-74
2023/01/05 11:12:51;;;;;;;0.40;0.40;;;;;;;;;;4954458;29;20704;-72
2023/01/05 11:15:18;;;;;;;0.50;0.50;;;;;;;;;;4954500;28;20198;-73
2023/01/05 11:17:45;;;;;;;0.50;0.50;;;;;;;;;;4954825;29;20247;-74
2023/01/05 11:20:15;;;;;;;0.40;0.40;;;;;;;;;;4954625;29;20184;-73
2023/01/05 11:22:43;;;;;;;0.50;0.50;;;;;;;;;;4953894;29;20648;-73
2023/01/05 11:25:21;;;;;;;0.50;0.50;;;;;;;;;;4954408;28;20296;-74
2023/01/05 11:28:02;;;;;;;0.57;0.57;;;;;;;;;;4954925;28;20201;-73
2023/01/05 11:30:28;;;;;;;0.53;0.53;;;;;;;;;;4954465;29;20175;-73
2023/01/05 11:32:54;;;;;;;0.57;0.57;;;;;;;;;;4953808;29;20233;-73
2023/01/05 11:35:28;;;;;;;0.60;0.60;;;;;;;;;;4953972;28;20281;-73
2023/01/05 11:37:54;;;;;;;0.50;0.50;;;;;;;;;;4954551;29;20189;-75
2023/01/05 11:40:22;;;;;;;0.50;0.50;;;;;;;;;;4954261;29;20183;-74
2023/01/05 11:42:48;;;;;;;0.60;0.60;;;;;;;;;;4953799;29;20270;-75
2023/01/05 11:45:23;;;;;;;0.50;0.50;;;;;;;;;;4954028;28;20218;-73
2023/01/05 11:47:51;;;;;;;0.60;0.60;;;;;;;;;;4953946;29;20182;-74
2023/01/05 11:50:23;;;;;;;0.57;0.57;;;;;;;;;;4954110;29;20198;-74
2023/01/05 11:52:53;;;;;;;0.67;0.67;;;;;;;;;;4953483;29;20236;-74
2023/01/05 11:55:20;;;;;;;0.60;0.60;;;;;;;;;;4953924;28;20202;-74
2023/01/05 11:57:47;;;;;;;0.50;0.50;;;;;;;;;;4954378;29;20229;-73
2023/01/05 12:00:23;;;;;;;0.60;0.60;;;;;;;;;;4953734;29;20193;-76
2023/01/05 12:03:08;;;;;;;0.60;0.60;;;;;;;;;;4935898;29;20217;-75
2023/01/05 12:05:45;;;;;;;0.60;0.60;;;;;;;;;;4953470;28;20675;-75
2023/01/05 12:08:14;;;;;;;0.50;0.50;;;;;;;;;;4953398;29;20574;-73
2023/01/05 12:10:59;;;;;;;0.70;0.70;;;;;;;;;;4953505;29;20815;-73
2023/01/05 12:13:44;;;;;;;0.60;0.60;;;;;;;;;;4953024;29;20269;-72
2023/01/05 12:16:28;;;;;;;0.70;0.70;;;;;;;;;;4953074;28;20202;-72
2023/01/05 12:19:06;;;;;;;0.50;0.50;;;;;;;;;;4953435;29;20658;-76
2023/01/05 12:21:39;;;;;;;0.50;0.50;;;;;;;;;;4953564;29;20207;-75
2023/01/05 12:24:24;;;;;;;0.50;0.50;;;;;;;;;;4952812;28;20191;-73
2023/01/05 12:27:10;;;;;;;0.67;0.67;;;;;;;;;;4953575;28;20206;-75
2023/01/05 12:29:55;;;;;;;0.50;0.50;;;;;;;;;;4953436;29;20277;-75
2023/01/05 12:32:27;;;;;;;0.57;0.57;;;;;;;;;;4953362;29;20186;-73
2023/01/05 12:35:12;;;;;;;0.60;0.60;;;;;;;;;;4953247;28;20210;-73
2023/01/05 12:37:46;;;;;;;0.50;0.50;;;;;;;;;;4953468;29;20182;-72
2023/01/05 12:40:28;;;;;;;0.70;0.70;;;;;;;;;;4953384;29;20184;-75
2023/01/05 12:43:00;;;;;;;0.60;0.60;;;;;;;;;;4952755;29;20186;-72
2023/01/05 12:45:45;;;;;;;0.57;0.57;;;;;;;;;;4952811;28;20218;-73
2023/01/05 12:48:13;;;;;;;0.50;0.50;;;;;;;;;;4953248;29;20178;-76
2023/01/05 12:50:42;;;;;;;0.60;0.60;;;;;;;;;;4953292;29;20277;-73
2023/01/05 12:53:18;;;;;;;0.30;0.30;;;;;;;;;;4952076;29;20424;-73
2023/01/05 12:55:49;;;;;;;0.53;0.53;;;;;;;;;;4953354;28;20213;-73
2023/01/05 12:58:38;;;;;;;0.50;0.50;;;;;;;;;;4947581;28;20179;-73
2023/01/05 13:01:07;;;;;;;0.60;0.60;;;;;;;;;;4931236;29;20198;-73
2023/01/05 13:03:35;;;;;;;0.50;0.50;;;;;;;;;;4933490;29;20184;-73
2023/01/05 13:06:03;;;;;;;0.50;0.50;;;;;;;;;;4934908;29;20220;-73
2023/01/05 13:08:38;;;;;;;0.50;0.50;;;;;;;;;;4938528;29;20269;-73
2023/01/05 13:11:11;;;;;;;0.50;0.50;;;;;;;;;;4936482;29;20246;-73
2023/01/05 13:14:03;;;;;;;0.57;0.57;;;;;;;;;;4933295;29;20535;-74
2023/01/05 13:16:36;;;;;;;0.63;0.63;;;;;;;;;;4935939;28;20203;-73
2023/01/05 13:19:10;;;;;;;0.70;0.70;;;;;;;;;;4950889;29;20666;-73
2023/01/05 13:21:39;;;;;;;0.70;0.70;;;;;;;;;;4952844;29;20528;-72
2023/01/05 13:24:26;;;;;;;0.50;0.50;;;;;;;;;;4952007;28;20179;-73
2023/01/05 13:26:52;;;;;;;0.50;0.50;;;;;;;;;;4953221;28;20214;-73
2023/01/05 13:29:22;;;;;;;0.60;0.60;;;;;;;;;;4956250;29;20182;-73
2023/01/05 13:32:07;;;;;;;0.53;0.53;;;;;;;;;;4955935;29;20273;-74
2023/01/05 13:34:45;;;;;;;0.50;0.50;;;;;;;;;;4955701;28;20198;-73
2023/01/05 13:37:17;;;;;;;0.67;0.67;;;;;;;;;;4955852;29;20175;-72
2023/01/05 13:39:43;;;;;;;0.50;0.50;;;;;;;;;;4956215;29;20183;-72
2023/01/05 13:42:20;;;;;;;0.50;0.50;;;;;;;;;;4955989;29;20186;-76
2023/01/05 13:45:05;;;;;;;0.60;0.60;;;;;;;;;;4955489;28;20222;-73
2023/01/05 13:47:45;;;;;;;0.60;0.60;;;;;;;;;;4955658;29;20183;-73
2023/01/05 13:50:30;;;;;;;0.70;0.70;;;;;;;;;;4956094;29;20214;-73
2023/01/05 13:53:11;;;;;;;0.53;0.53;;;;;;;;;;4955194;29;20178;-76
2023/01/05 13:55:40;;;;;;;0.60;0.60;;;;;;;;;;4955541;28;20650;-73
2023/01/05 13:58:18;;;;;;;0.60;0.60;;;;;;;;;;4955658;28;20831;-74
2023/01/05 14:00:49;;;;;;;0.57;0.57;;;;;;;;;;4955519;29;20210;-75
2023/01/05 14:03:23;;;;;;;0.60;0.60;;;;;;;;;;4955210;29;20187;-75
2023/01/05 14:05:51;;;;;;;0.70;0.70;;;;;;;;;;4955313;28;20218;-72
2023/01/05 14:08:20;;;;;;;0.60;0.60;;;;;;;;;;4955381;29;20213;-75
2023/01/05 14:11:05;;;;;;;0.60;0.60;;;;;;;;;;4955831;29;20213;-74
2023/01/05 14:13:40;;;;;;;0.60;0.60;;;;;;;;;;4954955;29;20660;-76
2023/01/05 14:16:25;;;;;;;0.60;0.60;;;;;;;;;;4954997;28;20327;-72
2023/01/05 14:18:52;;;;;;;0.50;0.50;;;;;;;;;;4955332;29;20175;-75
2023/01/05 14:21:44;;;;;;;0.60;0.60;;;;;;;;;;4955407;29;20195;-75
2023/01/05 14:24:25;;;;;;;0.50;0.50;;;;;;;;;;4932083;28;20236;-75
2023/01/05 14:26:59;;;;;;;0.60;0.60;;;;;;;;;;4955378;28;20333;-74
2023/01/05 14:29:46;;;;;;;0.57;0.57;;;;;;;;;;4955239;29;20186;-75
2023/01/05 14:32:25;;;;;;;0.50;0.50;;;;;;;;;;4955513;29;20225;-75
2023/01/05 14:35:02;;;;;;;0.50;0.50;;;;;;;;;;4957145;28;20210;-75
2023/01/05 14:37:35;;;;;;;0.60;0.60;;;;;;;;;;4979460;28;20170;-73
2023/01/05 14:40:02;;;;;;;0.50;0.50;;;;;;;;;;4978522;28;20203;-73
2023/01/05 14:42:35;;;;;;;0.60;0.60;;;;;;;;;;4967994;28;20185;-73
2023/01/05 14:45:06;;;;;;;0.60;0.60;;;;;;;;;;4973037;28;20317;-73
2023/01/05 14:47:40;;;;;;;0.60;0.60;;;;;;;;;;4959838;29;20191;-74
2023/01/05 14:50:13;;;;;;;0.63;0.63;;;;;;;;;;4968401;28;20187;-74
2023/01/05 14:52:52;;;;;;;0.63;0.63;;;;;;;;;;4964957;29;20219;-72
2023/01/05 14:55:23;;;;;;;0.60;0.60;;;;;;;;;;4958700;29;20207;-74
2023/01/05 14:57:51;;;;;;;0.57;0.57;;;;;;;;;;4957635;29;20175;-75
2023/01/05 15:00:35;;;;;;;0.50;0.50;;;;;;;;;;4943054;29;20187;-75
2023/01/05 15:03:22;;;;;;;0.50;0.50;;;;;;;;;;4936830;29;20197;-72
2023/01/05 15:05:52;;;;;;;0.50;0.50;;;;;;;;;;4918900;29;20222;-72
2023/01/05 15:08:28;;;;;;;0.53;0.53;;;;;;;;;;4935965;29;20648;-75
2023/01/05 15:10:57;;;;;;;0.60;0.60;;;;;;;;;;4935277;29;20183;-75
2023/01/05 15:13:23;;;;;;;0.50;0.50;;;;;;;;;;4934291;29;20183;-74
2023/01/05 15:15:53;;;;;;;0.60;0.60;;;;;;;;;;4934732;29;20631;-74
2023/01/05 15:18:38;;;;;;;0.60;0.60;;;;;;;;;;4933482;29;20593;-75
2023/01/05 15:21:08;;;;;;;0.60;0.60;;;;;;;;;;4935303;29;20595;-74
2023/01/05 15:24:06;;;;;;;0.50;0.50;;;;;;;;;;4934114;29;20175;-75
2023/01/05 15:26:53;;;;;;;0.67;0.67;;;;;;;;;;4912475;29;20304;-74
2023/01/05 15:29:26;;;;;;;0.50;0.50;;;;;;;;;;4939212;29;20172;-75
2023/01/05 15:31:56;;;;;;;0.53;0.53;;;;;;;;;;4938170;29;20201;-76
2023/01/05 15:34:26;;;;;;;0.50;0.50;;;;;;;;;;4933675;29;20290;-76
2023/01/05 15:36:59;;;;;;;0.50;0.50;;;;;;;;;;4934378;29;20194;-73